Airfield :







YOU CAN JOIN US ON...

 
LOGIN :

Register | Disclaimer

   EN    FR    IT 

 









Legend :    VFR   Marginal VFR   IFR   Intensive IFR   Very Intensive IFR
Visi :
Ceiling :
>= 8 km
>= 3000ft
5 to 8 km
1000 to 3000 ft
1500m to 5 km
500 to 1000 ft
800 to 1500m
200 to 500 ft
< 800m
< 200 ft
Symbols :   Thunderstorms  Fog  Heavy snow  Heavy precipitations  Wind > 20 kt






- Airport Elevation : 1270 ft
- IATA code : YMT


CYMT - Chapais

CURRENT METAR :
  • 072000Z AUTO 33005KT 290V360 9SM CLR M01/M11 A2978 RMK SLP107

EXPIRED METARs :
  • 071900Z AUTO 29010KT 260V360 9SM SCT039 M01/M10 A2980 RMK SLP113
  • 071800Z AUTO 36007KT 260V020 9SM BKN037 M01/M10 A2982 RMK SLP120

TAF TAF CYMT
Valid from the 07 at 18:00 until the 08 at 00:00 UTC


071738Z 0718/0724 32006KT P6SM BKN030
TEMPO 0718/0724 5SM -SHSN OVC020 RMK FCST BASED ON AUTO OBS. NXT FCST WILL BE ISSUED AT 081145Z



MET'MAP, your aeronautical weather chart ! - Copyright ORBIFLY December 2007 - Disclaimer

ORBIFLY MET'MAP TEAM :

Programming & Development : Alexandra Zaïnal
Concept & original design : Baudouin d'Aumeries
Assistance for programming : Marc-Olivier Méhu
Technical & hardware support : Manuel Goepfert

Contact : metmap@orbifly.com




SOURCES & CREDITS :

   NOAA